Jefferson, Mississippi
Current Conditions -  °F | °C
As of 5:53 PM on Friday 21 Nov 2014 (Local Time) from KGWO Reporting Station
Overcast Overcast  
Wind Chill: 64°   Ceiling: 10000
Heat Index: 64°   Visibility: 10mi
Dew Point: 47°   Wind: 8mph
Humidity: 54%   Direction: 130°SE
Pressure: 30.27"   Gusts: NA
Location:  33.5322°N, 89.9872°W
Report Text: KGWO 212353Z AUTO 13007KT 10SM OVC100 18/08 A3027 RMK AO2 SLP250 T01780083 10222 20178 51010 TSNO
Loading
Personal Weather Stations






























Interactive Weather Map New forecast layout! Learn more

10-Day Weather Forecast

Advertisements
Track Severe Weather on mobile